createdAt,value
2022-11-01T00:00:52.577Z,0.00
2022-11-01T00:01:47.916Z,0.00
2022-11-01T00:02:43.095Z,0.00
2022-11-01T00:03:38.373Z,0.00
2022-11-01T00:04:33.565Z,0.00
2022-11-01T00:05:28.904Z,0.00
2022-11-01T00:06:24.032Z,0.00
2022-11-01T00:07:19.421Z,0.00
2022-11-01T00:08:14.532Z,0.00
2022-11-01T00:09:09.752Z,0.00
2022-11-01T00:10:05.192Z,0.00
2022-11-01T00:11:00.284Z,0.00
2022-11-01T00:11:55.492Z,0.00
2022-11-01T00:12:50.773Z,0.00
2022-11-01T00:13:45.982Z,0.00
2022-11-01T00:14:41.189Z,0.00
2022-11-01T00:15:36.430Z,0.00
2022-11-01T00:16:31.673Z,0.00
2022-11-01T00:17:26.924Z,0.00
2022-11-01T00:18:22.182Z,0.00
2022-11-01T00:19:17.405Z,0.00
2022-11-01T00:20:12.668Z,0.00
2022-11-01T00:21:07.751Z,0.00
2022-11-01T00:22:02.842Z,0.00
2022-11-01T00:22:57.935Z,0.00
2022-11-01T00:23:53.025Z,0.00
2022-11-01T00:24:48.125Z,0.00
2022-11-01T00:25:43.228Z,0.00
2022-11-01T00:26:38.381Z,0.00
2022-11-01T00:27:33.367Z,0.00
2022-11-01T00:28:28.779Z,0.00
2022-11-01T00:29:23.599Z,0.00
2022-11-01T00:30:18.689Z,0.00
2022-11-01T00:31:14.014Z,0.00
2022-11-01T00:32:08.785Z,0.00
2022-11-01T00:33:03.815Z,0.00
2022-11-01T00:33:58.873Z,0.00
2022-11-01T00:34:53.860Z,0.00
2022-11-01T00:35:49.028Z,0.00
2022-11-01T00:36:43.923Z,0.00
2022-11-01T00:37:38.930Z,0.00
2022-11-01T00:38:33.934Z,0.00
2022-11-01T00:39:31.423Z,0.00
2022-11-01T00:40:25.048Z,0.00
2022-11-01T00:41:20.484Z,0.00
2022-11-01T00:42:15.669Z,0.00
2022-11-01T00:43:11.025Z,0.00
2022-11-01T00:44:06.188Z,0.00
2022-11-01T00:45:01.459Z,0.00
2022-11-01T00:45:56.888Z,0.00
2022-11-01T00:46:51.784Z,0.00
2022-11-01T00:47:47.061Z,0.00
2022-11-01T00:48:42.238Z,0.00
2022-11-01T00:49:37.398Z,0.00
2022-11-01T00:50:32.560Z,0.00
2022-11-01T00:51:27.992Z,0.00
2022-11-01T00:52:22.936Z,0.00
2022-11-01T00:53:18.082Z,0.00
2022-11-01T00:54:14.744Z,0.00
2022-11-01T00:55:09.840Z,0.00
2022-11-01T00:56:05.204Z,0.00
2022-11-01T00:57:00.477Z,0.00
2022-11-01T00:57:55.725Z,0.00
2022-11-01T00:58:50.855Z,0.00
2022-11-01T00:59:45.969Z,0.00
2022-11-01T01:00:40.903Z,0.00
2022-11-01T01:01:36.167Z,0.00
2022-11-01T01:02:31.183Z,0.00
2022-11-01T01:03:26.149Z,0.00
2022-11-01T01:04:21.242Z,0.00
2022-11-01T01:05:16.372Z,0.00
2022-11-01T01:06:11.434Z,0.00
2022-11-01T01:07:06.613Z,0.00
2022-11-01T01:08:01.636Z,0.00
2022-11-01T01:08:56.720Z,0.00
2022-11-01T01:09:53.231Z,0.00
2022-11-01T01:10:48.454Z,0.00
2022-11-01T01:11:43.259Z,0.00
2022-11-01T01:12:38.287Z,0.00
2022-11-01T01:13:33.341Z,0.00
2022-11-01T01:14:32.217Z,0.00
2022-11-01T01:15:23.386Z,0.00
2022-11-01T01:16:18.446Z,0.00
2022-11-01T01:17:13.510Z,0.00
2022-11-01T01:18:08.532Z,0.00
2022-11-01T01:19:03.648Z,0.00
2022-11-01T01:19:58.771Z,0.00
2022-11-01T01:20:54.317Z,0.00
2022-11-01T01:21:49.788Z,0.00
2022-11-01T01:22:44.983Z,0.00
2022-11-01T01:23:40.785Z,0.00
2022-11-01T01:24:36.014Z,0.00
2022-11-01T01:25:31.917Z,0.00
2022-11-01T01:26:27.044Z,0.00
2022-11-01T01:27:22.272Z,0.00
2022-11-01T01:28:18.080Z,0.00
2022-11-01T01:29:13.295Z,0.00
2022-11-01T01:30:08.753Z,0.00
2022-11-01T01:31:04.781Z,0.00
2022-11-01T01:31:59.964Z,0.00
2022-11-01T01:32:55.693Z,0.00
2022-11-01T01:33:50.992Z,0.00
2022-11-01T01:34:46.284Z,0.00
2022-11-01T01:35:42.008Z,0.00
2022-11-01T01:36:37.319Z,0.00
2022-11-01T01:37:33.077Z,0.00
2022-11-01T01:38:28.261Z,0.00
2022-11-01T01:39:23.557Z,0.00
2022-11-01T01:40:19.177Z,0.00
2022-11-01T01:41:14.358Z,0.00
2022-11-01T01:42:09.532Z,0.00
2022-11-01T01:43:06.215Z,0.00
2022-11-01T01:44:01.288Z,0.00
2022-11-01T01:44:56.999Z,0.00
2022-11-01T01:45:52.288Z,0.00
2022-11-01T01:46:47.640Z,0.00
2022-11-01T01:47:43.390Z,0.00
2022-11-01T01:48:38.477Z,0.00
2022-11-01T01:49:36.418Z,0.00
2022-11-01T01:50:29.668Z,0.00
2022-11-01T01:51:25.290Z,0.00
2022-11-01T01:52:20.452Z,0.00
2022-11-01T01:53:16.472Z,0.00
2022-11-01T01:54:11.484Z,0.00
2022-11-01T01:55:06.923Z,0.00
2022-11-01T01:56:02.825Z,0.00
2022-11-01T01:56:57.982Z,0.00
2022-11-01T01:57:53.422Z,0.00
2022-11-01T01:58:49.440Z,0.00
2022-11-01T01:59:44.596Z,0.00
2022-11-01T02:00:40.553Z,0.00
2022-11-01T02:01:35.841Z,0.00
2022-11-01T02:02:31.190Z,0.00
2022-11-01T02:03:27.000Z,0.00
2022-11-01T02:04:22.216Z,0.00
2022-11-01T02:05:18.018Z,0.00
2022-11-01T02:06:13.311Z,0.00
2022-11-01T02:07:08.529Z,0.00
2022-11-01T02:08:03.804Z,0.00
2022-11-01T02:08:58.816Z,0.00
2022-11-01T02:09:54.697Z,0.00
2022-11-01T02:10:49.874Z,0.00
2022-11-01T02:11:45.846Z,0.00
2022-11-01T02:12:40.890Z,0.00
2022-11-01T02:13:36.325Z,0.00
2022-11-01T02:14:32.101Z,0.00
2022-11-01T02:15:27.270Z,0.00
2022-11-01T02:16:22.545Z,0.00
2022-11-01T02:17:18.975Z,0.00
2022-11-01T02:18:14.169Z,0.00
2022-11-01T02:19:09.906Z,0.00
2022-11-01T02:20:05.048Z,0.00
2022-11-01T02:21:00.481Z,0.00
2022-11-01T02:21:56.217Z,0.00
2022-11-01T02:22:51.526Z,0.00
2022-11-01T02:23:46.719Z,0.00
2022-11-01T02:24:41.861Z,0.00
2022-11-01T02:25:37.134Z,0.00
2022-11-01T02:26:32.191Z,0.00
2022-11-01T02:27:27.241Z,0.00
2022-11-01T02:28:22.349Z,0.00
2022-11-01T02:29:17.386Z,0.00
2022-11-01T02:30:12.430Z,0.00
2022-11-01T02:31:07.449Z,0.00
2022-11-01T02:32:02.490Z,0.00
2022-11-01T02:32:57.661Z,0.00
2022-11-01T02:33:52.709Z,0.00
2022-11-01T02:34:48.137Z,0.00
2022-11-01T02:35:43.306Z,0.00
2022-11-01T02:36:38.566Z,0.00
2022-11-01T02:37:33.604Z,0.00
2022-11-01T02:38:28.616Z,0.00
2022-11-01T02:39:23.652Z,0.00
2022-11-01T02:40:18.845Z,0.00
2022-11-01T02:41:13.744Z,0.00
2022-11-01T02:42:08.764Z,0.00
2022-11-01T02:43:04.001Z,0.00
2022-11-01T02:43:58.906Z,0.00
2022-11-01T02:44:53.957Z,0.00
2022-11-01T02:45:48.991Z,0.00
2022-11-01T02:46:44.002Z,0.00
2022-11-01T02:47:39.025Z,0.00
2022-11-01T02:48:39.742Z,0.00
2022-11-01T02:49:34.902Z,0.00
2022-11-01T02:50:30.031Z,0.00
2022-11-01T02:51:25.285Z,0.00
2022-11-01T02:52:20.591Z,0.00
2022-11-01T02:53:15.861Z,0.00
2022-11-01T02:54:11.011Z,0.00
2022-11-01T02:55:06.320Z,0.00
2022-11-01T02:56:01.801Z,0.00
2022-11-01T02:56:56.662Z,0.00
2022-11-01T02:57:51.938Z,0.00
2022-11-01T02:58:47.112Z,0.00
2022-11-01T02:59:42.380Z,0.00
2022-11-01T03:00:37.648Z,0.00
2022-11-01T03:01:32.909Z,0.00
2022-11-01T03:02:28.234Z,0.00
2022-11-01T03:03:24.337Z,0.00
2022-11-01T03:04:19.513Z,0.00
2022-11-01T03:05:14.804Z,0.00
2022-11-01T03:06:09.985Z,0.00
2022-11-01T03:07:05.118Z,0.00
2022-11-01T03:08:00.669Z,0.00
2022-11-01T03:08:55.520Z,0.00
2022-11-01T03:09:50.794Z,0.00
2022-11-01T03:10:46.197Z,0.00
2022-11-01T03:11:41.533Z,0.00
2022-11-01T03:12:36.567Z,0.00
2022-11-01T03:13:31.710Z,0.00
2022-11-01T03:14:26.851Z,0.00
2022-11-01T03:15:22.283Z,0.00
2022-11-01T03:16:17.451Z,0.00
2022-11-01T03:17:12.599Z,0.00
2022-11-01T03:18:07.760Z,0.00
2022-11-01T03:19:03.204Z,0.00
2022-11-01T03:19:58.322Z,0.00
2022-11-01T03:20:53.503Z,0.00
2022-11-01T03:21:48.803Z,0.00
2022-11-01T03:22:44.029Z,0.00
2022-11-01T03:23:39.149Z,0.00
2022-11-01T03:24:34.428Z,0.00
2022-11-01T03:25:29.627Z,0.00
2022-11-01T03:26:24.766Z,0.00
2022-11-01T03:27:20.271Z,0.00
2022-11-01T03:28:15.296Z,0.00
2022-11-01T03:29:10.571Z,0.00
2022-11-01T03:30:05.752Z,0.00
2022-11-01T03:31:00.764Z,0.00
2022-11-01T03:31:55.791Z,0.00
2022-11-01T03:32:50.873Z,0.00
2022-11-01T03:33:45.886Z,0.00
2022-11-01T03:34:41.184Z,0.00
2022-11-01T03:35:36.355Z,0.00
2022-11-01T03:36:31.395Z,0.00
2022-11-01T03:37:30.657Z,0.00
2022-11-01T03:38:25.672Z,0.00
2022-11-01T03:39:20.813Z,0.00
2022-11-01T03:40:15.994Z,0.00
2022-11-01T03:41:11.298Z,0.00
2022-11-01T03:42:06.575Z,0.00
2022-11-01T03:43:01.974Z,0.00
2022-11-01T03:43:56.974Z,0.00
2022-11-01T03:44:52.133Z,0.00
2022-11-01T03:45:47.292Z,0.00
2022-11-01T03:46:42.571Z,0.00
2022-11-01T03:47:38.068Z,0.00
2022-11-01T03:48:33.104Z,0.00
2022-11-01T03:49:28.250Z,0.00
2022-11-01T03:50:23.417Z,0.00
2022-11-01T03:51:18.708Z,0.00
2022-11-01T03:52:14.113Z,0.00
2022-11-01T03:53:09.144Z,0.00
2022-11-01T03:54:04.486Z,0.00
2022-11-01T03:54:59.640Z,0.00
2022-11-01T03:55:54.791Z,0.00
2022-11-01T03:56:50.226Z,0.00
2022-11-01T03:57:45.211Z,0.00
2022-11-01T03:58:40.481Z,0.00
2022-11-01T03:59:35.906Z,0.00
2022-11-01T04:00:30.966Z,0.00
2022-11-01T04:01:26.251Z,0.00
2022-11-01T04:02:21.476Z,0.00
2022-11-01T04:03:16.486Z,0.00
2022-11-01T04:04:11.916Z,0.00
2022-11-01T04:05:07.064Z,0.00
2022-11-01T04:06:02.210Z,0.00
2022-11-01T04:06:57.386Z,0.00
2022-11-01T04:07:52.731Z,0.00
2022-11-01T04:08:47.875Z,0.00
2022-11-01T04:09:43.049Z,0.00
2022-11-01T04:10:38.342Z,0.00
2022-11-01T04:11:33.511Z,0.00
2022-11-01T04:12:28.811Z,0.00
2022-11-01T04:13:23.952Z,0.00
2022-11-01T04:14:19.187Z,0.00
2022-11-01T04:15:14.298Z,0.00
2022-11-01T04:16:09.730Z,0.00
2022-11-01T04:17:04.770Z,0.00
2022-11-01T04:17:59.949Z,0.00
2022-11-01T04:18:55.118Z,0.00
2022-11-01T04:19:50.401Z,0.00
2022-11-01T04:20:45.830Z,0.00
2022-11-01T04:21:41.068Z,0.00
2022-11-01T04:22:36.181Z,0.00
2022-11-01T04:23:31.385Z,0.00
2022-11-01T04:24:26.651Z,0.00
2022-11-01T04:25:22.084Z,0.00
2022-11-01T04:26:17.101Z,0.00
2022-11-01T04:27:12.402Z,0.00
2022-11-01T04:28:07.554Z,0.00
2022-11-01T04:29:02.820Z,0.00
2022-11-01T04:29:58.106Z,0.00
2022-11-01T04:30:53.300Z,0.00
2022-11-01T04:31:48.427Z,0.00
2022-11-01T04:32:43.838Z,0.00
2022-11-01T04:33:39.002Z,0.00
2022-11-01T04:34:34.198Z,0.00
2022-11-01T04:35:29.319Z,0.00
2022-11-01T04:36:24.514Z,0.00
2022-11-01T04:37:19.446Z,0.00
2022-11-01T04:38:14.500Z,0.00
2022-11-01T04:39:09.724Z,0.00
2022-11-01T04:40:04.897Z,0.00
2022-11-01T04:40:59.858Z,0.00
2022-11-01T04:41:54.920Z,0.00
2022-11-01T04:42:50.032Z,0.00
2022-11-01T04:43:45.128Z,0.00
2022-11-01T04:44:40.235Z,0.00
2022-11-01T04:45:35.449Z,0.00
2022-11-01T04:46:30.403Z,0.00
2022-11-01T04:47:25.478Z,0.00
2022-11-01T04:48:20.545Z,0.00
2022-11-01T04:49:15.624Z,0.00
2022-11-01T04:50:10.708Z,0.00
2022-11-01T04:51:05.937Z,0.00
2022-11-01T04:52:00.934Z,0.00
2022-11-01T04:52:56.412Z,0.00
2022-11-01T04:53:51.559Z,0.00
2022-11-01T04:54:46.800Z,0.00
2022-11-01T04:55:42.005Z,0.00
2022-11-01T04:56:37.414Z,0.00
2022-11-01T04:57:32.645Z,0.00
2022-11-01T04:58:27.878Z,0.00
2022-11-01T04:59:23.232Z,0.00
2022-11-01T05:00:18.354Z,0.00
2022-11-01T05:01:13.682Z,0.00
2022-11-01T05:02:08.972Z,0.00
2022-11-01T05:03:04.815Z,0.00
2022-11-01T05:03:59.476Z,0.00
2022-11-01T05:04:54.732Z,0.00
2022-11-01T05:05:49.969Z,0.00
2022-11-01T05:06:45.201Z,0.00
2022-11-01T05:07:40.441Z,0.00
2022-11-01T05:08:37.033Z,0.00
2022-11-01T05:09:32.574Z,0.00
2022-11-01T05:10:27.521Z,0.00
2022-11-01T05:11:22.864Z,0.00
2022-11-01T05:12:18.216Z,0.00
2022-11-01T05:13:13.327Z,0.00
2022-11-01T05:14:08.402Z,0.00
2022-11-01T05:15:03.843Z,0.00
2022-11-01T05:16:54.536Z,0.00
2022-11-01T05:17:48.537Z,0.00
2022-11-01T05:18:43.624Z,0.00
2022-11-01T05:19:38.697Z,0.00
2022-11-01T05:20:33.789Z,0.00
2022-11-01T05:21:28.960Z,0.00
2022-11-01T05:22:25.684Z,0.00
2022-11-01T05:23:21.049Z,0.00
2022-11-01T05:24:16.123Z,0.00
2022-11-01T05:25:11.339Z,0.00
2022-11-01T05:26:06.691Z,0.00
2022-11-01T05:27:01.928Z,0.00
2022-11-01T05:27:57.144Z,0.00
2022-11-01T05:28:52.389Z,0.00
2022-11-01T05:29:47.623Z,0.00
2022-11-01T05:30:43.000Z,0.00
2022-11-01T05:31:38.342Z,1.00
2022-11-01T05:32:33.443Z,1.00
2022-11-01T05:33:28.651Z,1.00
2022-11-01T05:34:23.926Z,0.00
2022-11-01T05:35:18.872Z,1.00
2022-11-01T05:36:13.940Z,1.00
2022-11-01T05:37:09.071Z,1.00
2022-11-01T05:38:07.150Z,1.00
2022-11-01T05:39:02.507Z,1.00
2022-11-01T05:39:57.735Z,2.00
2022-11-01T05:40:52.832Z,2.00
2022-11-01T05:41:47.900Z,3.00
2022-11-01T05:42:43.013Z,2.00
2022-11-01T05:43:38.115Z,2.00
2022-11-01T05:44:33.077Z,3.00
2022-11-01T05:45:28.191Z,4.00
2022-11-01T05:46:23.255Z,4.00
2022-11-01T05:47:18.376Z,5.00
2022-11-01T05:48:13.481Z,7.00
2022-11-01T05:49:08.431Z,8.00
2022-11-01T05:50:03.513Z,9.00
2022-11-01T05:50:58.519Z,11.00
2022-11-01T05:51:53.551Z,13.00
2022-11-01T05:52:48.663Z,14.00
2022-11-01T05:53:43.776Z,17.00
2022-11-01T05:54:38.782Z,20.00
2022-11-01T05:55:34.472Z,22.00
2022-11-01T05:56:29.803Z,26.00
2022-11-01T05:57:27.599Z,29.00
2022-11-01T05:58:21.788Z,33.00
2022-11-01T05:59:16.210Z,38.00
2022-11-01T06:00:12.173Z,42.00
2022-11-01T06:01:07.355Z,45.00
2022-11-01T06:02:03.063Z,50.00
2022-11-01T06:02:58.711Z,54.00
2022-11-01T06:03:53.917Z,60.00
2022-11-01T06:04:49.299Z,64.00
2022-11-01T06:05:45.561Z,71.00
2022-11-01T06:06:40.842Z,82.00
2022-11-01T06:07:36.565Z,91.00
2022-11-01T06:08:31.826Z,96.00
2022-11-01T06:09:27.377Z,103.00
2022-11-01T06:10:23.130Z,110.00
2022-11-01T06:11:18.528Z,121.00
2022-11-01T06:12:14.287Z,127.00
2022-11-01T06:13:09.600Z,138.00
2022-11-01T06:14:05.075Z,148.00
2022-11-01T06:15:00.732Z,158.00
2022-11-01T06:15:56.119Z,179.00
2022-11-01T06:16:51.470Z,183.00
2022-11-01T06:17:47.808Z,197.00
2022-11-01T06:18:43.236Z,209.00
2022-11-01T06:19:38.905Z,230.00
2022-11-01T06:20:34.285Z,236.00
2022-11-01T06:21:30.496Z,265.00
2022-11-01T06:22:25.655Z,272.00
2022-11-01T06:23:21.051Z,294.00
2022-11-01T06:24:16.852Z,313.00
2022-11-01T06:25:12.279Z,322.00
2022-11-01T06:26:07.661Z,365.00
2022-11-01T06:27:04.131Z,396.00
2022-11-01T06:27:58.976Z,435.00
2022-11-01T06:28:54.176Z,446.00
2022-11-01T06:29:50.785Z,488.00
2022-11-01T06:30:46.355Z,516.00
2022-11-01T06:31:42.136Z,573.00
2022-11-01T06:32:37.510Z,618.00
2022-11-01T06:33:33.063Z,681.00
2022-11-01T06:34:28.709Z,749.00
2022-11-01T06:35:24.189Z,749.00
2022-11-01T06:36:19.848Z,828.00
2022-11-01T06:37:15.258Z,832.00
2022-11-01T06:38:10.661Z,900.00
2022-11-01T06:39:06.464Z,894.00
2022-11-01T06:40:01.877Z,917.00
2022-11-01T06:40:57.515Z,873.00
2022-11-01T06:41:53.860Z,887.00
2022-11-01T06:42:49.365Z,873.00
2022-11-01T06:43:45.169Z,858.00
2022-11-01T06:44:40.528Z,892.00
2022-11-01T06:45:35.971Z,933.00
2022-11-01T06:46:31.655Z,991.00
2022-11-01T06:47:27.164Z,1063.00
2022-11-01T06:48:22.860Z,1170.00
2022-11-01T06:49:19.329Z,1258.00
2022-11-01T06:50:13.694Z,1352.00
2022-11-01T06:51:09.419Z,1386.00
2022-11-01T06:52:04.867Z,1560.00
2022-11-01T06:53:00.298Z,1691.00
2022-11-01T06:53:55.713Z,1763.00
2022-11-01T06:54:51.450Z,1984.00
2022-11-01T06:55:47.094Z,2213.00
2022-11-01T06:56:42.596Z,2302.00
2022-11-01T06:57:38.235Z,2353.00
2022-11-01T06:58:33.721Z,2565.00
2022-11-01T06:59:29.561Z,2627.00
2022-11-01T07:00:25.167Z,2841.00
2022-11-01T07:01:20.634Z,2806.00
2022-11-01T07:02:19.398Z,2940.00
2022-11-01T07:03:11.917Z,3089.00
2022-11-01T07:04:07.610Z,3172.00
2022-11-01T07:05:03.687Z,3378.00
2022-11-01T07:05:59.183Z,3448.00
2022-11-01T07:06:55.374Z,3479.00
2022-11-01T07:07:50.624Z,3554.00
2022-11-01T07:08:46.130Z,3634.00
2022-11-01T07:09:41.855Z,3776.00
2022-11-01T07:10:37.340Z,4018.00
2022-11-01T07:11:32.829Z,4144.00
2022-11-01T07:12:28.656Z,4423.00
2022-11-01T07:13:23.993Z,4583.00
2022-11-01T07:14:19.061Z,4727.00
2022-11-01T07:15:14.169Z,4881.00
2022-11-01T07:16:09.236Z,5087.00
2022-11-01T07:17:04.216Z,5468.00
2022-11-01T07:17:59.487Z,5879.00
2022-11-01T07:18:54.417Z,6006.00
2022-11-01T07:19:49.519Z,5952.00
2022-11-01T07:21:39.754Z,6243.00
2022-11-01T07:22:34.719Z,6365.00
2022-11-01T07:23:29.816Z,6253.00
2022-11-01T07:24:24.897Z,6270.00
2022-11-01T07:25:20.028Z,6016.00
2022-11-01T07:26:15.197Z,6231.00
2022-11-01T07:27:10.555Z,5772.00
2022-11-01T07:28:06.421Z,5508.00
2022-11-01T07:29:01.839Z,5169.00
2022-11-01T07:29:57.319Z,4745.00
2022-11-01T07:30:53.132Z,4568.00
2022-11-01T07:31:48.621Z,4449.00
2022-11-01T07:32:44.646Z,4566.00
2022-11-01T07:33:39.916Z,4188.00
2022-11-01T07:34:35.403Z,4344.00
2022-11-01T07:35:31.390Z,4597.00
2022-11-01T07:36:26.642Z,4744.00
2022-11-01T07:37:22.343Z,4725.00
2022-11-01T07:38:18.739Z,4928.00
2022-11-01T07:39:13.897Z,4856.00
2022-11-01T07:40:09.795Z,4624.00
2022-11-01T07:41:05.188Z,4470.00
2022-11-01T07:42:00.676Z,4306.00
2022-11-01T07:42:56.477Z,4221.00
2022-11-01T07:43:51.975Z,4072.00
2022-11-01T07:44:47.890Z,4130.00
2022-11-01T07:45:43.275Z,4076.00
2022-11-01T07:46:38.759Z,4165.00
2022-11-01T07:47:34.780Z,4169.00
2022-11-01T07:48:30.042Z,4129.00
2022-11-01T07:49:25.525Z,3962.00
2022-11-01T07:50:21.869Z,3747.00
2022-11-01T07:51:17.358Z,3734.00
2022-11-01T07:52:13.272Z,3762.00
2022-11-01T07:53:08.780Z,3992.00
2022-11-01T07:54:04.279Z,4165.00
2022-11-01T07:55:00.080Z,4270.00
2022-11-01T07:55:55.494Z,4426.00
2022-11-01T07:56:51.518Z,4513.00
2022-11-01T07:57:46.902Z,4523.00
2022-11-01T07:58:42.376Z,4738.00
2022-11-01T07:59:38.360Z,5041.00
2022-11-01T08:01:29.712Z,5289.00
2022-11-01T08:02:25.689Z,5633.00
2022-11-01T08:03:21.126Z,5739.00
2022-11-01T08:04:17.064Z,6006.00
2022-11-01T08:05:12.571Z,6166.00
2022-11-01T08:06:08.160Z,6596.00
2022-11-01T08:07:04.148Z,6462.00
2022-11-01T08:07:59.536Z,6481.00
2022-11-01T08:08:55.212Z,6665.00
2022-11-01T08:09:50.585Z,6510.00
2022-11-01T08:10:46.081Z,6586.00
2022-11-01T08:11:41.835Z,6672.00
2022-11-01T08:12:37.474Z,6970.00
2022-11-01T08:13:32.816Z,7069.00
2022-11-01T08:14:29.543Z,7231.00
2022-11-01T08:15:25.024Z,7375.00
2022-11-01T08:16:20.800Z,7625.00
2022-11-01T08:17:16.321Z,7941.00
2022-11-01T08:18:11.835Z,8080.00
2022-11-01T08:19:07.634Z,8541.00
2022-11-01T08:20:03.111Z,8711.00
2022-11-01T08:20:58.869Z,9139.00
2022-11-01T08:21:54.241Z,9728.00
2022-11-01T08:22:49.746Z,9964.00
2022-11-01T08:23:45.180Z,10286.00
2022-11-01T08:24:40.572Z,10807.00
2022-11-01T08:25:37.216Z,11153.00
2022-11-01T08:26:32.380Z,11609.00
2022-11-01T08:27:30.345Z,12173.00
2022-11-01T08:28:23.761Z,12774.00
2022-11-01T08:29:19.060Z,12794.00
2022-11-01T08:30:14.871Z,12771.00
2022-11-01T08:31:10.269Z,12822.00
2022-11-01T08:32:05.970Z,12699.00
2022-11-01T08:33:01.765Z,12503.00
2022-11-01T08:33:57.106Z,12597.00
2022-11-01T08:34:52.779Z,11995.00
2022-11-01T08:35:50.684Z,12044.00
2022-11-01T08:36:43.706Z,11943.00
2022-11-01T08:37:38.721Z,11757.00
2022-11-01T08:38:33.866Z,11579.00
2022-11-01T08:39:29.064Z,11480.00
2022-11-01T08:40:24.150Z,11522.00
2022-11-01T08:41:19.155Z,11635.00
2022-11-01T08:42:14.174Z,11293.00
2022-11-01T08:43:09.264Z,11341.00
2022-11-01T08:44:04.498Z,11207.00
2022-11-01T08:44:59.372Z,10740.00
2022-11-01T08:45:54.476Z,11129.00
2022-11-01T08:46:50.182Z,11467.00
2022-11-01T08:47:45.708Z,11929.00
2022-11-01T08:48:41.385Z,11804.00
2022-11-01T08:49:36.525Z,11425.00
2022-11-01T08:50:33.255Z,10757.00
2022-11-01T08:51:28.668Z,9897.00
2022-11-01T08:52:24.295Z,9448.00
2022-11-01T08:53:20.082Z,8750.00
2022-11-01T08:54:14.733Z,8739.00
2022-11-01T08:55:09.847Z,8774.00
2022-11-01T08:56:04.933Z,8915.00
2022-11-01T08:56:59.974Z,8657.00
2022-11-01T08:57:55.192Z,8741.00
2022-11-01T08:58:50.152Z,8041.00
2022-11-01T08:59:45.254Z,7461.00
2022-11-01T09:00:40.476Z,6696.00
2022-11-01T09:01:38.612Z,6129.00
2022-11-01T09:02:33.610Z,5747.00
2022-11-01T09:03:28.724Z,5472.00
2022-11-01T09:04:23.672Z,5240.00
2022-11-01T09:05:18.778Z,4935.00
2022-11-01T09:06:13.857Z,4629.00
2022-11-01T09:07:08.938Z,4343.00
2022-11-01T09:08:04.247Z,4163.00
2022-11-01T09:08:59.019Z,4025.00
2022-11-01T09:09:54.351Z,3957.00
2022-11-01T09:10:51.167Z,4005.00
2022-11-01T09:11:46.515Z,4057.00
2022-11-01T09:12:42.433Z,4017.00
2022-11-01T09:13:37.938Z,4009.00
2022-11-01T09:14:33.454Z,3894.00
2022-11-01T09:15:29.381Z,3763.00
2022-11-01T09:16:24.864Z,3801.00
2022-11-01T09:17:20.651Z,3779.00
2022-11-01T09:18:16.125Z,3973.00
2022-11-01T09:19:11.642Z,3938.00
2022-11-01T09:20:07.566Z,4005.00
2022-11-01T09:21:03.014Z,4242.00
2022-11-01T09:21:58.512Z,4322.00
2022-11-01T09:22:54.843Z,4315.00
2022-11-01T09:23:50.352Z,4466.00
2022-11-01T09:24:46.221Z,4686.00
2022-11-01T09:25:41.732Z,4810.00
2022-11-01T09:26:37.195Z,4922.00
2022-11-01T09:27:32.999Z,5193.00
2022-11-01T09:28:32.798Z,5681.00
2022-11-01T09:29:25.590Z,6491.00
2022-11-01T09:30:19.721Z,7278.00
2022-11-01T09:31:20.908Z,8441.00
2022-11-01T09:32:12.947Z,8805.00
2022-11-01T09:33:07.525Z,9315.00
2022-11-01T09:34:02.879Z,9623.00
2022-11-01T09:34:59.362Z,9979.00
2022-11-01T09:35:59.312Z,10101.00
2022-11-01T09:36:50.768Z,10177.00
2022-11-01T09:37:46.278Z,10289.00
2022-11-01T09:38:41.816Z,10516.00
2022-11-01T09:39:37.403Z,10675.00
2022-11-01T09:40:32.907Z,10685.00
2022-11-01T09:41:28.707Z,10697.00
2022-11-01T09:42:24.103Z,10695.00
2022-11-01T09:43:19.604Z,10803.00
2022-11-01T09:44:15.428Z,10657.00
2022-11-01T09:45:10.661Z,10802.00
2022-11-01T09:46:06.163Z,10831.00
2022-11-01T09:47:02.821Z,10765.00
2022-11-01T09:47:57.881Z,10588.00
2022-11-01T09:48:53.766Z,10396.00
2022-11-01T09:49:49.236Z,10386.00
2022-11-01T09:50:44.625Z,9848.00
2022-11-01T09:51:40.527Z,10033.00
2022-11-01T09:52:36.010Z,9667.00
2022-11-01T09:53:31.965Z,9682.00
2022-11-01T09:54:27.162Z,9294.00
2022-11-01T09:55:22.653Z,8897.00
2022-11-01T09:56:18.410Z,8630.00
2022-11-01T09:57:13.846Z,8799.00
2022-11-01T09:58:09.391Z,8737.00
2022-11-01T09:59:05.599Z,8507.00
2022-11-01T10:00:01.110Z,8244.00
2022-11-01T10:00:56.682Z,8280.00
2022-11-01T10:01:52.242Z,8384.00
2022-11-01T10:02:47.832Z,8509.00
2022-11-01T10:03:43.271Z,8529.00
2022-11-01T10:04:38.994Z,8532.00
2022-11-01T10:05:34.420Z,8318.00
2022-11-01T10:06:29.851Z,8197.00
2022-11-01T10:07:25.585Z,7966.00
2022-11-01T10:08:21.019Z,7595.00
2022-11-01T10:09:16.564Z,7563.00
2022-11-01T10:10:12.840Z,7319.00
2022-11-01T10:11:08.612Z,6928.00
2022-11-01T10:12:04.027Z,7103.00
2022-11-01T10:12:59.400Z,6927.00
2022-11-01T10:13:54.946Z,6930.00
2022-11-01T10:14:50.627Z,7152.00
2022-11-01T10:15:46.120Z,7266.00
2022-11-01T10:16:41.850Z,7074.00
2022-11-01T10:17:37.274Z,7116.00
2022-11-01T10:18:32.829Z,7124.00
2022-11-01T10:19:28.134Z,7588.00
2022-11-01T10:20:23.525Z,7866.00
2022-11-01T10:21:19.073Z,8348.00
2022-11-01T10:22:14.051Z,8873.00
2022-11-01T10:23:09.065Z,9200.00
2022-11-01T10:24:08.974Z,10081.00
2022-11-01T10:25:04.312Z,10738.00
2022-11-01T10:25:59.764Z,11105.00
2022-11-01T10:26:55.306Z,11537.00
2022-11-01T10:27:51.990Z,11994.00
2022-11-01T10:28:47.471Z,12684.00
2022-11-01T10:29:42.963Z,13329.00
2022-11-01T10:30:38.473Z,14166.00
2022-11-01T10:31:33.536Z,14971.00
2022-11-01T10:32:28.647Z,15016.00
2022-11-01T10:33:23.722Z,15029.00
2022-11-01T10:34:18.794Z,15045.00
2022-11-01T10:35:13.872Z,14949.00
2022-11-01T10:36:08.942Z,14538.00
2022-11-01T10:37:04.047Z,14267.00
2022-11-01T10:38:11.113Z,14483.00
2022-11-01T10:39:55.538Z,14179.00
2022-11-01T10:40:45.328Z,14131.00
2022-11-01T10:41:39.160Z,13747.00
2022-11-01T10:42:34.216Z,13736.00
2022-11-01T10:43:29.347Z,13763.00
2022-11-01T10:44:24.388Z,13610.00
2022-11-01T10:45:19.474Z,13655.00
2022-11-01T10:46:19.573Z,13500.00
2022-11-01T10:47:15.041Z,13408.00
2022-11-01T10:48:10.509Z,13065.00
2022-11-01T10:49:06.433Z,12972.00
2022-11-01T10:50:06.493Z,12750.00
2022-11-01T10:50:58.384Z,12611.00
2022-11-01T10:51:53.106Z,12679.00
2022-11-01T10:52:48.718Z,12699.00
2022-11-01T10:53:44.219Z,12602.00
2022-11-01T10:54:39.655Z,12352.00
2022-11-01T10:55:36.114Z,12327.00
2022-11-01T10:56:31.950Z,12212.00
2022-11-01T10:57:27.563Z,12215.00
2022-11-01T10:58:22.894Z,12153.00
2022-11-01T10:59:18.386Z,11921.00
2022-11-01T11:00:14.265Z,12015.00
2022-11-01T11:01:10.006Z,12108.00
2022-11-01T11:02:05.781Z,11755.00
2022-11-01T11:03:01.093Z,11934.00
2022-11-01T11:03:56.711Z,12002.00
2022-11-01T11:04:52.872Z,11647.00
2022-11-01T11:05:48.450Z,11949.00
2022-11-01T11:06:43.787Z,12002.00
2022-11-01T11:07:40.251Z,11963.00
2022-11-01T11:08:35.729Z,11846.00
2022-11-01T11:09:31.619Z,12200.00
2022-11-01T11:10:27.133Z,12155.00
2022-11-01T11:11:22.612Z,11941.00
2022-11-01T11:12:18.423Z,12171.00
2022-11-01T11:13:13.863Z,11975.00
2022-11-01T11:14:09.759Z,11973.00
2022-11-01T11:15:05.253Z,11958.00
2022-11-01T11:16:00.675Z,11832.00
2022-11-01T11:16:56.349Z,11969.00
2022-11-01T11:17:51.953Z,11894.00
2022-11-01T11:18:47.380Z,12051.00
2022-11-01T11:19:43.713Z,12344.00
2022-11-01T11:20:39.208Z,12229.00
2022-11-01T11:21:35.088Z,11973.00
2022-11-01T11:22:30.432Z,11888.00
2022-11-01T11:23:25.996Z,12100.00
2022-11-01T11:24:21.741Z,11877.00
2022-11-01T11:25:17.061Z,12166.00
2022-11-01T11:26:13.105Z,11967.00
2022-11-01T11:27:08.345Z,12189.00
2022-11-01T11:28:04.113Z,12040.00
2022-11-01T11:28:59.616Z,11885.00
2022-11-01T11:29:55.122Z,11999.00
2022-11-01T11:30:50.674Z,11764.00
2022-11-01T11:31:46.847Z,11969.00
2022-11-01T11:32:42.328Z,11930.00
2022-11-01T11:33:38.224Z,11811.00
2022-11-01T11:34:33.674Z,11764.00
2022-11-01T11:35:29.276Z,11895.00
2022-11-01T11:36:24.219Z,11795.00
2022-11-01T11:37:19.187Z,11822.00
2022-11-01T11:38:14.286Z,11852.00
2022-11-01T11:39:09.510Z,12016.00
2022-11-01T11:40:04.553Z,11970.00
2022-11-01T11:40:59.584Z,11717.00
2022-11-01T11:41:54.888Z,11716.00
2022-11-01T11:42:49.624Z,11438.00
2022-11-01T11:43:44.632Z,11348.00
2022-11-01T11:44:39.635Z,11488.00